Time;durP1;ratioP1;P1;durP2;ratioP2;P2;SDS_P1;SDS_P2;PMS_P1;PMS_P2;Temp;Humidity;BMP_temperature;BMP_pressure;BME280_temperature;BME280_humidity;BME280_pressure;Samples;Min_cycle;Max_cycle;Signal;HPM_P1;HPM_P2
2022/05/02 00:01:32;;;;;;;9.60;7.40;;;8.00;99.90;;;;;;5053123;28;20172;-74
2022/05/02 00:03:58;;;;;;;9.30;7.83;;;8.00;99.90;;;;;;5053225;28;20176;-74
2022/05/02 00:06:23;;;;;;;9.10;7.83;;;7.90;99.90;;;;;;5053175;28;20210;-74
2022/05/02 00:08:49;;;;;;;10.30;8.33;;;7.90;99.90;;;;;;5053250;28;20168;-74
2022/05/02 00:11:15;;;;;;;9.90;8.37;;;7.90;99.90;;;;;;5035341;28;20225;-75
2022/05/02 00:13:40;;;;;;;9.10;7.40;;;7.80;99.90;;;;;;5053373;28;20228;-74
2022/05/02 00:16:07;;;;;;;11.73;7.90;;;7.80;99.90;;;;;;5035083;28;20187;-74
2022/05/02 00:18:32;;;;;;;9.50;7.90;;;7.70;99.90;;;;;;5035161;28;20187;-74
2022/05/02 00:20:58;;;;;;;8.80;7.90;;;7.70;99.90;;;;;;5052999;28;20180;-74
2022/05/02 00:23:23;;;;;;;10.37;8.07;;;7.60;99.90;;;;;;5034210;28;20220;-74
2022/05/02 00:25:50;;;;;;;11.50;7.47;;;7.60;99.90;;;;;;5052749;28;20262;-74
2022/05/02 00:28:16;;;;;;;9.73;7.97;;;7.60;99.90;;;;;;5052722;28;20218;-74
2022/05/02 00:30:42;;;;;;;12.27;9.07;;;7.60;99.90;;;;;;5052781;28;20175;-74
2022/05/02 00:33:07;;;;;;;9.90;8.13;;;7.60;99.90;;;;;;5052778;28;20178;-71
2022/05/02 00:35:33;;;;;;;10.37;8.57;;;7.60;99.90;;;;;;5034822;28;20262;-74
2022/05/02 00:37:59;;;;;;;13.87;7.63;;;7.60;99.90;;;;;;5052814;28;20234;-75
2022/05/02 00:40:25;;;;;;;10.97;8.80;;;7.50;99.90;;;;;;5052765;28;20176;-74
2022/05/02 00:42:51;;;;;;;12.83;8.43;;;7.60;99.90;;;;;;5052728;28;20266;-74
2022/05/02 00:45:18;;;;;;;9.20;7.60;;;7.50;99.90;;;;;;5052663;28;20176;-75
2022/05/02 00:47:57;;;;;;;10.87;7.80;;;7.50;99.90;;;;;;5052589;28;20207;-73
2022/05/02 00:50:44;;;;;;;10.63;8.27;;;7.50;99.90;;;;;;5052885;28;20171;-74
2022/05/02 00:53:14;;;;;;;10.53;8.17;;;7.50;99.90;;;;;;5052673;28;20255;-75
2022/05/02 00:55:41;;;;;;;11.90;8.57;;;7.40;99.90;;;;;;5052875;28;20156;-74
2022/05/02 00:58:07;;;;;;;11.60;9.47;;;7.50;99.90;;;;;;5052716;28;20194;-75
2022/05/02 01:00:36;;;;;;;12.60;9.80;;;7.40;99.90;;;;;;5034874;28;20179;-74
2022/05/02 01:03:03;;;;;;;13.00;9.70;;;7.30;99.90;;;;;;5052776;28;20193;-75
2022/05/02 01:05:29;;;;;;;14.70;9.83;;;7.40;99.90;;;;;;5053022;28;20745;-74
2022/05/02 01:07:55;;;;;;;10.67;9.57;;;7.30;99.90;;;;;;5034782;28;20298;-74
2022/05/02 01:10:21;;;;;;;13.30;9.63;;;7.30;99.90;;;;;;5052558;28;20534;-74
2022/05/02 01:12:48;;;;;;;14.33;9.90;;;7.30;99.90;;;;;;5034655;28;20267;-74
2022/05/02 01:15:16;;;;;;;12.13;9.53;;;7.30;99.90;;;;;;5052707;28;20593;-74
2022/05/02 01:17:42;;;;;;;13.57;9.47;;;7.30;99.90;;;;;;5052481;28;20626;-74
2022/05/02 01:20:09;;;;;;;10.97;9.73;;;7.30;99.90;;;;;;5052416;28;20553;-75
2022/05/02 01:22:35;;;;;;;13.00;9.40;;;7.30;99.90;;;;;;5052423;28;20305;-74
2022/05/02 01:25:00;;;;;;;12.03;9.37;;;7.20;99.90;;;;;;5052346;28;20176;-75
2022/05/02 01:27:26;;;;;;;12.93;9.50;;;7.20;99.90;;;;;;5034371;28;20224;-74
2022/05/02 01:29:51;;;;;;;10.23;9.20;;;7.20;99.90;;;;;;5052438;28;20171;-74
2022/05/02 01:32:17;;;;;;;12.37;9.40;;;7.20;99.90;;;;;;5034446;28;20175;-73
2022/05/02 01:34:43;;;;;;;12.77;9.70;;;7.10;99.90;;;;;;5053059;28;20207;-75
2022/05/02 01:37:11;;;;;;;13.07;9.33;;;7.10;99.90;;;;;;5056134;28;20310;-75
2022/05/02 01:39:37;;;;;;;10.83;9.40;;;7.00;99.90;;;;;;5038104;28;20552;-75
2022/05/02 01:42:04;;;;;;;11.17;8.77;;;7.00;99.90;;;;;;5038259;28;20182;-75
2022/05/02 01:44:30;;;;;;;12.97;8.70;;;7.00;99.90;;;;;;5055712;28;20175;-75
2022/05/02 01:46:56;;;;;;;10.03;8.47;;;7.00;99.90;;;;;;5055805;28;20222;-75
2022/05/02 01:49:22;;;;;;;12.53;9.73;;;6.90;99.90;;;;;;5055653;28;20172;-75
2022/05/02 01:51:49;;;;;;;15.33;10.30;;;6.90;99.90;;;;;;5056258;28;20526;-75
2022/05/02 01:54:14;;;;;;;13.83;10.20;;;6.80;99.90;;;;;;5056073;28;20246;-75
2022/05/02 01:56:40;;;;;;;13.30;9.67;;;6.80;99.90;;;;;;5037801;28;20635;-75
2022/05/02 01:59:06;;;;;;;14.53;10.63;;;6.80;99.90;;;;;;5055464;28;20180;-75
2022/05/02 02:01:32;;;;;;;13.17;9.70;;;6.80;99.90;;;;;;5055514;28;20175;-75
2022/05/02 02:05:48;;;;;;;13.10;10.47;;;6.80;99.90;;;;;;5055588;28;20168;-75
2022/05/02 02:06:48;;;;;;;12.70;10.37;;;6.80;99.90;;;;;;5056876;28;20580;-75
2022/05/02 02:09:15;;;;;;;13.43;10.77;;;6.80;99.90;;;;;;5075616;28;20175;-75
2022/05/02 02:11:40;;;;;;;11.57;10.37;;;6.80;99.90;;;;;;5074764;28;20175;-75
2022/05/02 02:14:06;;;;;;;13.17;11.27;;;6.80;99.90;;;;;;5057688;28;20516;-75
2022/05/02 02:16:31;;;;;;;15.30;11.50;;;6.80;99.90;;;;;;5055186;28;20207;-74
2022/05/02 02:18:57;;;;;;;14.37;11.37;;;6.80;99.90;;;;;;5055512;28;20164;-75
2022/05/02 02:21:22;;;;;;;14.53;11.07;;;6.80;99.90;;;;;;5037308;28;20266;-75
2022/05/02 02:23:48;;;;;;;14.73;10.77;;;6.80;99.90;;;;;;5055087;28;20178;-75
2022/05/02 02:26:14;;;;;;;15.37;11.57;;;6.80;99.90;;;;;;5037094;28;20199;-74
2022/05/02 02:28:39;;;;;;;12.73;11.20;;;6.80;99.90;;;;;;5054891;28;20216;-74
2022/05/02 02:31:05;;;;;;;17.03;10.90;;;6.80;99.90;;;;;;5055127;28;20179;-75
2022/05/02 02:33:30;;;;;;;12.10;10.80;;;6.80;99.90;;;;;;5055170;28;20183;-72
2022/05/02 02:35:56;;;;;;;12.27;10.17;;;6.80;99.90;;;;;;5036816;28;20176;-73
2022/05/02 02:38:22;;;;;;;12.83;10.70;;;6.70;99.90;;;;;;5035838;28;20180;-74
2022/05/02 02:40:48;;;;;;;13.67;10.20;;;6.70;99.90;;;;;;5054903;28;20262;-75
2022/05/02 02:43:13;;;;;;;13.67;11.13;;;6.80;99.90;;;;;;5054626;28;20176;-75
2022/05/02 02:45:39;;;;;;;14.77;12.17;;;6.70;99.90;;;;;;5054395;28;20221;-74
2022/05/02 02:48:05;;;;;;;12.63;11.33;;;6.70;99.90;;;;;;5036074;28;20604;-74
2022/05/02 02:50:31;;;;;;;14.50;11.53;;;6.60;99.90;;;;;;5054824;28;20188;-75
2022/05/02 02:52:56;;;;;;;12.83;11.43;;;6.60;99.90;;;;;;5054448;28;20246;-75
2022/05/02 02:55:22;;;;;;;15.17;12.20;;;6.60;99.90;;;;;;5036818;28;20638;-75
2022/05/02 02:57:48;;;;;;;15.13;11.67;;;6.60;99.90;;;;;;5036399;28;20656;-74
2022/05/02 03:00:14;;;;;;;12.77;11.33;;;6.60;99.90;;;;;;5036347;28;20175;-74
2022/05/02 03:02:42;;;;;;;14.13;11.60;;;6.60;99.90;;;;;;5036381;28;20179;-75
2022/05/02 03:08:09;;;;;;;16.47;11.07;;;6.50;99.90;;;;;;4992659;28;20302;-74
2022/05/02 03:10:35;;;;;;;13.33;11.23;;;6.50;99.90;;;;;;5041442;28;20196;-75
2022/05/02 03:13:01;;;;;;;13.60;11.00;;;6.50;99.90;;;;;;5053976;28;20172;-75
2022/05/02 03:15:26;;;;;;;13.40;12.00;;;6.50;99.90;;;;;;5053929;28;20203;-75
2022/05/02 03:17:52;;;;;;;14.00;11.77;;;6.40;99.90;;;;;;5053832;28;20244;-74
2022/05/02 03:20:18;;;;;;;16.73;12.97;;;6.50;99.90;;;;;;5053876;28;20168;-75
2022/05/02 03:22:43;;;;;;;17.80;12.93;;;6.50;99.90;;;;;;5057189;28;20167;-73
2022/05/02 03:25:09;;;;;;;16.47;12.40;;;6.50;99.90;;;;;;5040536;28;20630;-74
2022/05/02 03:27:34;;;;;;;14.63;12.10;;;6.50;99.90;;;;;;5040500;28;20620;-74
2022/05/02 03:30:00;;;;;;;14.13;11.93;;;6.50;99.90;;;;;;5058685;28;20203;-75
2022/05/02 03:32:25;;;;;;;15.10;12.33;;;6.50;99.90;;;;;;5073961;28;20164;-75
2022/05/02 03:34:51;;;;;;;15.23;12.80;;;6.40;99.90;;;;;;5074127;28;20179;-75
2022/05/02 03:37:16;;;;;;;15.80;11.53;;;6.40;99.90;;;;;;5045274;28;20573;-75
2022/05/02 03:39:42;;;;;;;17.03;12.27;;;6.40;99.90;;;;;;5053729;28;20548;-75
2022/05/02 03:42:08;;;;;;;17.77;14.03;;;6.50;99.90;;;;;;5035697;28;20258;-75
2022/05/02 03:44:33;;;;;;;14.90;12.57;;;6.40;99.90;;;;;;5053767;28;20668;-75
2022/05/02 03:46:59;;;;;;;14.13;12.53;;;6.40;99.90;;;;;;5053267;28;20282;-75
2022/05/02 03:49:24;;;;;;;14.27;11.90;;;6.40;99.90;;;;;;5053438;28;20199;-75
2022/05/02 03:51:50;;;;;;;14.57;12.30;;;6.40;99.90;;;;;;5035772;28;20164;-75
2022/05/02 03:54:15;;;;;;;16.63;12.83;;;6.40;99.90;;;;;;5053276;28;20175;-74
2022/05/02 03:56:41;;;;;;;16.33;12.63;;;6.40;99.90;;;;;;5035424;28;20574;-75
2022/05/02 03:59:06;;;;;;;15.17;11.63;;;6.40;99.90;;;;;;5035262;28;20180;-75
2022/05/02 04:01:36;;;;;;;15.20;12.23;;;6.40;99.90;;;;;;5053401;28;20668;-75
2022/05/02 04:04:02;;;;;;;14.17;12.43;;;6.40;99.90;;;;;;5053382;28;20171;-75
2022/05/02 04:06:28;;;;;;;14.30;11.80;;;6.40;99.90;;;;;;5053027;28;20196;-75
2022/05/02 04:08:53;;;;;;;16.47;12.40;;;6.30;99.90;;;;;;5035227;28;20175;-75
2022/05/02 04:11:19;;;;;;;14.93;13.30;;;6.30;99.90;;;;;;5053688;28;20168;-75
2022/05/02 04:13:44;;;;;;;20.23;14.00;;;6.30;99.90;;;;;;5053721;28;20656;-75
2022/05/02 04:16:10;;;;;;;15.07;12.80;;;6.30;99.90;;;;;;5035072;28;20563;-75
2022/05/02 04:18:35;;;;;;;15.17;12.57;;;6.30;99.90;;;;;;5053298;28;20172;-75
2022/05/02 04:21:01;;;;;;;16.03;13.47;;;6.30;99.90;;;;;;5052987;28;20171;-75
2022/05/02 04:23:26;;;;;;;14.43;12.77;;;6.30;99.90;;;;;;5053184;28;20179;-75
2022/05/02 04:25:52;;;;;;;17.37;12.80;;;6.40;99.90;;;;;;5035142;28;20180;-75
2022/05/02 04:28:17;;;;;;;15.93;13.27;;;6.30;99.90;;;;;;5053042;28;20282;-74
2022/05/02 04:30:43;;;;;;;15.17;12.77;;;6.30;99.90;;;;;;5053054;28;20171;-74
2022/05/02 04:33:09;;;;;;;16.30;13.77;;;6.40;99.90;;;;;;5035095;28;20518;-76
2022/05/02 04:35:34;;;;;;;15.87;13.43;;;6.40;99.90;;;;;;5052902;28;20168;-75
2022/05/02 04:38:01;;;;;;;14.70;12.50;;;6.40;99.90;;;;;;5052799;28;20199;-75
2022/05/02 04:40:26;;;;;;;17.27;12.87;;;6.40;99.90;;;;;;5052965;28;20198;-74
2022/05/02 04:42:52;;;;;;;15.80;13.77;;;6.40;99.90;;;;;;5053225;28;20168;-75
2022/05/02 04:45:17;;;;;;;15.87;12.97;;;6.40;99.90;;;;;;5053034;28;20172;-75
2022/05/02 04:47:43;;;;;;;15.67;13.10;;;6.40;99.90;;;;;;5034682;28;20769;-73
2022/05/02 04:50:09;;;;;;;19.80;14.97;;;6.40;99.90;;;;;;5034805;28;20171;-75
2022/05/02 04:52:34;;;;;;;19.33;13.77;;;6.40;99.90;;;;;;5053129;28;20530;-73
2022/05/02 04:55:00;;;;;;;18.93;13.80;;;6.50;99.90;;;;;;5052579;28;20203;-74
2022/05/02 04:57:25;;;;;;;17.23;14.33;;;6.50;99.90;;;;;;5052594;28;20217;-73
2022/05/02 04:59:50;;;;;;;16.83;13.87;;;6.50;99.90;;;;;;5052623;28;20620;-73
2022/05/02 05:02:16;;;;;;;15.97;13.47;;;6.60;99.90;;;;;;5052598;28;20172;-75
2022/05/02 05:04:42;;;;;;;16.93;13.77;;;6.60;99.90;;;;;;5034689;28;20176;-74
2022/05/02 05:07:07;;;;;;;17.53;13.87;;;6.60;99.90;;;;;;5052475;28;20227;-75
2022/05/02 05:09:33;;;;;;;17.87;13.67;;;6.60;99.90;;;;;;5035099;28;20526;-75
2022/05/02 05:12:10;;;;;;;17.17;13.20;;;6.60;99.90;;;;;;5038572;28;20171;-74
2022/05/02 05:18:20;;;;;;;15.80;13.93;;;6.70;99.90;;;;;;5056533;28;20582;-74
2022/05/02 05:21:22;;;;;;;17.20;13.97;;;6.70;99.90;;;;;;5049059;28;20676;-75
2022/05/02 05:24:07;;;;;;;15.57;13.70;;;6.70;99.90;;;;;;5056119;28;20266;-75
2022/05/02 05:26:51;;;;;;;15.43;12.87;;;6.80;99.90;;;;;;5056094;28;20570;-75
2022/05/02 05:29:38;;;;;;;17.47;14.33;;;6.80;99.90;;;;;;5056008;28;20539;-75
2022/05/02 05:32:18;;;;;;;19.03;14.83;;;6.80;99.90;;;;;;5055845;28;20522;-75
2022/05/02 05:34:52;;;;;;;20.80;15.23;;;6.80;99.90;;;;;;5056089;28;20230;-74
2022/05/02 05:37:57;;;;;;;19.30;14.63;;;6.90;99.90;;;;;;5055804;28;20195;-75
2022/05/02 05:40:33;;;;;;;17.10;14.63;;;6.90;99.90;;;;;;5051081;22;20232;-73
2022/05/02 05:43:30;;;;;;;20.53;14.77;;;7.00;99.90;;;;;;4992056;28;20177;-73
2022/05/02 05:46:15;;;;;;;19.70;14.40;;;7.10;99.90;;;;;;4993105;28;20178;-74
2022/05/02 05:49:06;;;;;;;17.90;14.03;;;7.10;99.90;;;;;;4992961;28;20245;-72
2022/05/02 05:51:48;;;;;;;18.80;15.47;;;7.20;99.90;;;;;;5009393;28;20189;-71
2022/05/02 05:55:05;;;;;;;17.90;14.97;;;7.30;99.90;;;;;;5012449;28;20195;-70
2022/05/02 05:57:49;;;;;;;16.57;14.30;;;7.40;99.90;;;;;;4995510;28;20192;-70
2022/05/02 06:00:15;;;;;;;23.07;15.70;;;7.50;99.90;;;;;;5012623;28;20565;-71
2022/05/02 06:03:14;;;;;;;22.23;16.20;;;7.60;99.90;;;;;;5012650;28;20180;-71
2022/05/02 06:05:42;;;;;;;19.07;15.67;;;7.70;99.90;;;;;;5010953;28;20222;-71
2022/05/02 06:08:14;;;;;;;22.47;16.87;;;7.90;99.90;;;;;;5012128;28;20288;-71
2022/05/02 06:10:42;;;;;;;20.30;15.70;;;8.00;99.90;;;;;;5012025;28;20199;-71
2022/05/02 06:13:08;;;;;;;28.20;18.53;;;8.10;99.90;;;;;;5012309;28;20230;-71
2022/05/02 06:18:28;;;;;;;22.53;16.93;;;8.30;99.90;;;;;;5012092;28;20199;-71
2022/05/02 06:20:58;;;;;;;22.10;16.03;;;8.50;99.90;;;;;;5012080;28;20200;-71
2022/05/02 06:23:26;;;;;;;21.13;14.40;;;8.60;99.90;;;;;;5012088;28;20169;-71
2022/05/02 06:25:54;;;;;;;17.87;13.13;;;8.70;99.90;;;;;;5012163;28;20180;-71
2022/05/02 06:28:25;;;;;;;16.40;13.37;;;8.80;99.90;;;;;;5010599;28;20555;-71
2022/05/02 06:30:53;;;;;;;17.83;13.17;;;8.90;99.90;;;;;;5012451;28;20685;-71
2022/05/02 06:33:20;;;;;;;14.87;11.67;;;9.00;99.90;;;;;;5012198;28;20169;-71
2022/05/02 06:35:58;;;;;;;16.27;12.60;;;9.10;99.90;;;;;;5010636;28;20184;-71
2022/05/02 06:38:32;;;;;;;13.77;11.93;;;9.20;99.90;;;;;;5011825;28;20177;-71
2022/05/02 06:41:38;;;;;;;15.17;12.80;;;9.20;99.90;;;;;;5011791;28;20257;-71
2022/05/02 06:44:35;;;;;;;16.03;13.07;;;9.30;99.90;;;;;;5011026;28;20209;-71
2022/05/02 06:47:10;;;;;;;16.30;12.20;;;9.50;99.90;;;;;;5012238;28;20596;-71
2022/05/02 06:49:39;;;;;;;15.90;12.80;;;9.50;99.90;;;;;;5011858;28;20640;-71
2022/05/02 06:52:09;;;;;;;16.37;13.30;;;9.50;99.90;;;;;;5011692;28;20173;-71
2022/05/02 06:55:01;;;;;;;18.07;12.70;;;9.70;99.90;;;;;;5010401;28;20215;-71
2022/05/02 06:57:41;;;;;;;21.83;12.77;;;9.70;99.90;;;;;;5011698;28;20162;-71
2022/05/02 07:00:10;;;;;;;16.93;13.17;;;9.80;99.90;;;;;;5010267;28;20200;-71
2022/05/02 07:02:48;;;;;;;15.07;12.17;;;9.90;88.00;;;;;;5012226;28;20698;-71
2022/05/02 07:05:27;;;;;;;13.87;11.97;;;9.90;7.30;;;;;;5011786;28;20180;-71
2022/05/02 07:08:03;;;;;;;16.20;11.40;;;10.00;1.00;;;;;;5010200;28;20545;-74
2022/05/02 07:10:37;;;;;;;15.23;10.83;;;10.10;1.00;;;;;;5011785;28;20313;-71
2022/05/02 07:13:39;;;;;;;12.30;9.93;;;10.20;99.90;;;;;;5012023;28;20152;-74
2022/05/02 07:16:23;;;;;;;13.00;10.30;;;10.20;99.90;;;;;;5010198;28;20169;-72
2022/05/02 07:18:56;;;;;;;10.37;9.27;;;10.30;1.00;;;;;;5011609;28;20276;-72
2022/05/02 07:21:35;;;;;;;13.10;9.63;;;10.40;99.90;;;;;;5011686;28;20587;-72
2022/05/02 07:24:14;;;;;;;16.20;11.13;;;10.50;1.00;;;;;;5011557;28;20163;-73
2022/05/02 07:26:44;;;;;;;11.63;9.83;;;10.60;56.90;;;;;;5011279;28;20185;-72
2022/05/02 07:29:11;;;;;;;11.37;9.00;;;10.70;1.00;;;;;;5010115;28;20196;-72
2022/05/02 07:31:39;;;;;;;17.13;8.63;;;10.70;99.90;;;;;;5009880;28;20212;-73
2022/05/02 07:34:06;;;;;;;10.67;8.53;;;10.80;99.90;;;;;;5009359;28;20180;-72
2022/05/02 07:36:33;;;;;;;9.87;8.63;;;11.00;99.90;;;;;;5011079;28;20272;-72
2022/05/02 07:39:02;;;;;;;12.63;8.40;;;11.00;99.90;;;;;;5009806;28;20177;-73
2022/05/02 07:41:28;;;;;;;10.00;8.07;;;11.20;1.00;;;;;;5010869;28;20208;-72
2022/05/02 07:44:07;;;;;;;9.30;7.70;;;11.30;1.00;;;;;;5011008;28;20518;-72
2022/05/02 07:46:38;;;;;;;10.83;7.47;;;11.40;1.00;;;;;;5010876;28;20271;-72
2022/05/02 07:49:05;;;;;;;12.37;7.70;;;11.50;1.00;;;;;;5011190;28;20173;-72
2022/05/02 07:51:31;;;;;;;11.47;8.43;;;11.60;1.00;;;;;;5010894;28;20235;-72
2022/05/02 07:53:59;;;;;;;10.47;7.77;;;11.70;99.90;;;;;;5010815;28;20173;-72
2022/05/02 07:56:31;;;;;;;10.17;8.03;;;11.70;1.00;;;;;;5011100;28;20205;-72
2022/05/02 07:58:58;;;;;;;11.60;8.30;;;11.80;99.90;;;;;;5009524;28;20594;-72
2022/05/02 08:01:25;;;;;;;10.33;7.63;;;11.80;56.70;;;;;;5010675;28;20224;-72
2022/05/02 08:03:52;;;;;;;14.47;8.03;;;11.90;99.90;;;;;;5009433;28;20177;-72
2022/05/02 08:06:29;;;;;;;9.53;8.40;;;12.00;1.00;;;;;;5009327;28;20207;-72
2022/05/02 08:09:32;;;;;;;10.23;8.70;;;12.10;1.00;;;;;;5010673;28;20654;-73
2022/05/02 08:12:16;;;;;;;12.93;8.40;;;12.10;1.00;;;;;;5009291;28;20218;-72
2022/05/02 08:15:02;;;;;;;9.37;7.53;;;12.20;1.00;;;;;;5009412;28;20165;-72
2022/05/02 08:17:58;;;;;;;12.97;7.90;;;12.40;1.00;;;;;;5010831;28;20180;-72
2022/05/02 08:20:42;;;;;;;12.20;7.80;;;12.60;99.90;;;;;;5010487;28;20612;-72
2022/05/02 08:29:05;;;;;;;11.20;7.70;;;12.80;1.00;;;;;;5010608;28;20191;-72
2022/05/02 08:31:43;;;;;;;12.20;8.23;;;12.90;99.90;;;;;;5010244;28;20185;-71
2022/05/02 08:34:14;;;;;;;15.20;8.73;;;13.00;1.00;;;;;;5010249;28;20160;-72
2022/05/02 08:37:29;;;;;;;12.27;8.97;;;13.10;99.90;;;;;;5008972;28;20173;-71
2022/05/02 08:40:00;;;;;;;10.53;7.60;;;13.20;1.00;;;;;;5008698;28;20228;-71
2022/05/02 08:42:44;;;;;;;14.13;8.67;;;13.20;8.50;;;;;;5010237;28;20191;-71
2022/05/02 08:45:22;;;;;;;12.37;8.17;;;13.30;49.90;;;;;;5010272;28;20219;-71
2022/05/02 08:48:05;;;;;;;12.37;8.23;;;13.40;1.00;;;;;;5014208;28;20195;-71
2022/05/02 08:50:49;;;;;;;11.03;7.83;;;13.50;99.90;;;;;;5013730;28;20188;-71
2022/05/02 08:53:20;;;;;;;10.47;7.40;;;13.50;99.90;;;;;;5013639;28;20661;-71
2022/05/02 08:56:33;;;;;;;18.00;8.10;;;13.70;1.00;;;;;;5013604;28;20165;-71
2022/05/02 08:59:01;;;;;;;13.43;8.07;;;13.70;1.00;;;;;;4972505;28;20193;-73
2022/05/02 09:01:32;;;;;;;16.23;8.57;;;13.90;99.90;;;;;;5005420;28;20585;-71
2022/05/02 09:04:19;;;;;;;11.33;7.80;;;13.90;1.00;;;;;;5013949;28;20262;-71
2022/05/02 09:07:22;;;;;;;24.73;9.33;;;14.00;1.00;;;;;;5013571;28;20253;-70
2022/05/02 09:10:09;;;;;;;14.70;7.57;;;14.10;99.90;;;;;;5012182;28;20783;-71
2022/05/02 09:12:56;;;;;;;14.87;8.27;;;14.20;1.00;;;;;;5013628;28;20237;-71
2022/05/02 09:15:47;;;;;;;14.10;8.67;;;14.30;99.90;;;;;;5013522;28;20635;-71
2022/05/02 09:18:44;;;;;;;10.13;7.90;;;14.30;99.90;;;;;;5013204;28;20180;-71
2022/05/02 09:21:40;;;;;;;11.70;9.03;;;14.40;99.90;;;;;;4997573;28;20666;-71
2022/05/02 09:24:33;;;;;;;14.73;7.90;;;14.50;95.70;;;;;;5012164;28;20173;-71
2022/05/02 09:27:14;;;;;;;9.67;8.33;;;14.50;10.70;;;;;;5013383;28;20226;-71
2022/05/02 09:30:11;;;;;;;17.43;8.10;;;14.70;1.00;;;;;;5013028;28;20154;-70
2022/05/02 09:33:05;;;;;;;12.53;7.27;;;14.70;1.00;;;;;;5013065;28;20179;-71
2022/05/02 09:35:39;;;;;;;14.80;8.40;;;14.80;99.90;;;;;;5012994;28;20169;-70
2022/05/02 09:38:23;;;;;;;12.43;8.83;;;14.90;99.90;;;;;;5013270;28;20172;-71
2022/05/02 09:41:09;;;;;;;10.40;7.20;;;14.90;79.00;;;;;;5011464;28;20762;-71
2022/05/02 09:49:53;;;;;;;13.03;8.27;;;15.20;17.30;;;;;;5012814;28;20702;-72
2022/05/02 09:52:51;;;;;;;13.27;8.10;;;15.30;1.00;;;;;;5013050;28;20193;-71
2022/05/02 09:58:34;;;;;;;10.77;7.37;;;15.40;99.90;;;;;;5012642;28;20170;-72
2022/05/02 10:01:25;;;;;;;10.73;8.10;;;15.50;1.00;;;;;;5012486;28;20197;-72
2022/05/02 10:04:19;;;;;;;11.23;7.07;;;15.50;1.00;;;;;;5012794;28;20575;-72
2022/05/02 10:06:49;;;;;;;11.33;7.47;;;15.50;1.00;;;;;;5012706;28;20636;-72
2022/05/02 10:09:35;;;;;;;11.00;7.60;;;15.60;1.00;;;;;;5011177;28;20185;-72
2022/05/02 10:12:20;;;;;;;8.90;7.10;;;15.80;99.90;;;;;;5012521;28;20240;-72
2022/05/02 10:15:11;;;;;;;10.20;6.93;;;15.90;99.90;;;;;;5011256;28;20218;-71
2022/05/02 10:18:05;;;;;;;11.10;7.40;;;15.90;99.90;;;;;;5012315;28;20218;-72
2022/05/02 10:20:59;;;;;;;12.90;7.70;;;15.90;99.90;;;;;;5012266;28;20647;-72
2022/05/02 10:23:28;;;;;;;12.67;7.10;;;16.00;99.90;;;;;;5011038;28;20183;-72
2022/05/02 10:26:07;;;;;;;8.17;5.97;;;16.00;99.90;;;;;;5012157;28;20173;-72
2022/05/02 10:28:58;;;;;;;9.60;6.13;;;16.00;99.90;;;;;;5012158;28;20251;-72
2022/05/02 10:31:33;;;;;;;10.87;6.70;;;16.10;1.00;;;;;;5010796;28;20197;-72
2022/05/02 10:34:01;;;;;;;10.97;7.07;;;16.20;1.00;;;;;;5012110;28;20184;-72
2022/05/02 10:36:40;;;;;;;12.00;5.70;;;16.30;99.90;;;;;;5010747;28;20177;-72
2022/05/02 10:39:46;;;;;;;11.37;6.73;;;16.40;1.00;;;;;;5012805;28;20497;-72
2022/05/02 10:42:16;;;;;;;9.83;6.33;;;16.50;1.00;;;;;;5012042;28;20157;-72
2022/05/02 10:45:06;;;;;;;8.40;6.17;;;16.50;99.90;;;;;;5011836;28;20169;-72
2022/05/02 10:47:53;;;;;;;11.20;6.77;;;16.60;99.90;;;;;;5006023;28;20265;-72
2022/05/02 10:50:37;;;;;;;9.73;5.63;;;16.60;1.00;;;;;;5011839;28;20590;-72
2022/05/02 10:53:21;;;;;;;8.10;7.10;;;16.70;1.00;;;;;;5010612;28;20157;-72
2022/05/02 10:55:55;;;;;;;11.17;7.03;;;16.70;1.00;;;;;;5011796;28;20200;-72
2022/05/02 10:58:23;;;;;;;9.13;6.50;;;16.80;1.00;;;;;;5010506;28;20693;-72
2022/05/02 11:01:07;;;;;;;10.60;6.47;;;16.90;1.00;;;;;;5010365;28;20201;-72
2022/05/02 11:03:44;;;;;;;9.37;6.37;;;17.00;99.90;;;;;;5011909;28;20180;-71
2022/05/02 11:06:32;;;;;;;8.50;6.50;;;17.10;1.00;;;;;;5010255;28;20630;-72
2022/05/02 11:09:02;;;;;;;9.23;6.97;;;17.10;1.00;;;;;;5010673;28;20228;-72
2022/05/02 11:11:48;;;;;;;7.37;6.47;;;17.10;99.90;;;;;;5011636;28;20220;-72
2022/05/02 11:14:25;;;;;;;11.37;6.60;;;17.20;99.90;;;;;;5011893;28;20641;-72
2022/05/02 11:16:56;;;;;;;12.30;7.33;;;17.30;99.90;;;;;;5011764;28;20177;-72
2022/05/02 11:22:59;;;;;;;11.80;6.53;;;17.30;1.00;;;;;;4997161;28;20272;-72
2022/05/02 11:25:34;;;;;;;10.30;6.63;;;17.30;1.00;;;;;;5010216;28;20172;-73
2022/05/02 11:28:27;;;;;;;7.50;6.13;;;17.30;1.00;;;;;;5011558;28;20666;-72
2022/05/02 11:31:04;;;;;;;8.37;7.07;;;17.40;1.00;;;;;;5011183;28;20258;-72
2022/05/02 11:33:51;;;;;;;10.37;6.57;;;17.40;1.00;;;;;;5009896;28;20229;-72
2022/05/02 11:36:23;;;;;;;11.17;6.20;;;17.40;99.90;;;;;;5011112;28;20157;-74
2022/05/02 11:39:03;;;;;;;8.47;4.67;;;17.40;99.90;;;;;;5011347;28;20157;-73
2022/05/02 11:41:31;;;;;;;8.00;5.53;;;17.50;1.00;;;;;;5010976;28;20201;-72
2022/05/02 11:44:12;;;;;;;6.90;5.03;;;17.60;1.00;;;;;;5009724;28;20550;-72
2022/05/02 11:46:49;;;;;;;7.67;6.07;;;17.70;1.00;;;;;;5011117;28;20561;-72
2022/05/02 11:49:30;;;;;;;7.77;6.37;;;17.80;99.90;;;;;;5009682;28;20200;-73
2022/05/02 11:52:00;;;;;;;12.03;5.57;;;17.90;99.90;;;;;;5009625;28;20169;-72
2022/05/02 11:54:36;;;;;;;6.50;5.50;;;17.90;99.90;;;;;;5012407;28;20627;-72
2022/05/02 11:57:14;;;;;;;8.43;5.37;;;18.10;99.90;;;;;;5010867;28;20176;-72
2022/05/02 11:59:57;;;;;;;6.23;5.33;;;18.10;99.90;;;;;;5010683;28;20649;-72
2022/05/02 12:02:51;;;;;;;8.30;6.13;;;18.30;99.90;;;;;;5009681;28;20257;-72
2022/05/02 12:05:27;;;;;;;8.57;6.10;;;18.20;99.90;;;;;;4995809;28;20185;-72
2022/05/02 12:08:01;;;;;;;7.40;5.80;;;18.30;99.90;;;;;;5009296;28;20204;-72
2022/05/02 12:10:42;;;;;;;8.63;5.90;;;18.30;99.90;;;;;;5010701;28;20534;-72
2022/05/02 12:13:19;;;;;;;8.07;6.27;;;18.40;99.90;;;;;;5010536;28;20190;-73
2022/05/02 12:16:02;;;;;;;10.17;5.00;;;18.40;99.90;;;;;;5010857;28;20240;-72
2022/05/02 12:18:41;;;;;;;11.10;6.23;;;18.40;99.90;;;;;;5010639;28;20248;-73
2022/05/02 12:21:08;;;;;;;7.67;5.30;;;18.30;99.90;;;;;;5009025;28;20200;-73
2022/05/02 12:23:37;;;;;;;8.13;6.10;;;18.20;99.90;;;;;;5010397;28;20173;-73
2022/05/02 12:26:12;;;;;;;5.67;4.97;;;18.20;99.90;;;;;;5010524;28;20180;-73
2022/05/02 12:28:51;;;;;;;6.53;5.00;;;18.10;99.90;;;;;;5011373;28;20518;-73
2022/05/02 12:31:37;;;;;;;9.10;5.77;;;18.10;99.90;;;;;;5008886;28;20189;-73
2022/05/02 12:34:05;;;;;;;11.10;5.83;;;18.10;99.90;;;;;;5010532;28;20168;-72
2022/05/02 12:36:48;;;;;;;7.63;6.00;;;18.00;99.90;;;;;;5010194;28;20177;-73
2022/05/02 12:39:18;;;;;;;5.20;4.70;;;18.10;94.30;;;;;;5008935;28;20189;-73
2022/05/02 12:41:49;;;;;;;6.47;5.10;;;18.10;99.90;;;;;;5010135;28;20226;-73
2022/05/02 12:44:16;;;;;;;6.03;5.10;;;18.30;99.90;;;;;;5008981;28;20188;-73
2022/05/02 12:46:47;;;;;;;8.40;5.70;;;18.40;99.90;;;;;;5008847;28;20296;-73
2022/05/02 12:49:26;;;;;;;10.50;5.97;;;18.50;99.90;;;;;;5008843;28;20646;-73
2022/05/02 12:51:53;;;;;;;7.93;6.57;;;18.60;96.00;;;;;;5008751;28;20192;-73
2022/05/02 12:54:21;;;;;;;8.43;6.10;;;18.70;1.00;;;;;;5010270;28;20634;-72
2022/05/02 13:02:39;;;;;;;7.80;6.40;;;18.90;1.00;;;;;;5010221;28;20625;-72
2022/05/02 13:05:15;;;;;;;9.20;5.87;;;19.00;1.00;;;;;;5010126;28;20525;-72
2022/05/02 13:07:47;;;;;;;10.40;6.43;;;19.10;1.00;;;;;;5009804;28;20204;-72
2022/05/02 13:10:18;;;;;;;7.73;5.17;;;19.10;1.00;;;;;;5009723;28;20191;-72
2022/05/02 13:13:11;;;;;;;7.47;5.63;;;19.20;5.70;;;;;;5009709;28;20165;-72
2022/05/02 13:15:41;;;;;;;10.77;5.93;;;19.30;1.00;;;;;;5009923;28;20162;-72
2022/05/02 13:18:09;;;;;;;10.60;6.10;;;19.50;1.00;;;;;;5009871;28;20192;-72
2022/05/02 13:20:36;;;;;;;6.87;5.70;;;19.50;6.50;;;;;;5009472;28;20746;-72
2022/05/02 13:23:07;;;;;;;7.63;5.53;;;19.60;1.00;;;;;;5008085;28;20179;-72
2022/05/02 13:25:53;;;;;;;6.67;5.23;;;19.60;1.00;;;;;;5009439;28;20619;-73
2022/05/02 13:28:32;;;;;;;5.43;4.37;;;19.60;1.00;;;;;;5009330;28;20189;-73
2022/05/02 13:31:09;;;;;;;5.20;4.33;;;19.50;1.00;;;;;;5010408;28;20185;-72
2022/05/02 13:33:38;;;;;;;5.83;4.30;;;19.50;1.00;;;;;;5013493;28;20513;-73
2022/05/02 13:36:07;;;;;;;7.37;4.73;;;19.60;1.00;;;;;;5011455;28;20200;-73
2022/05/02 13:38:44;;;;;;;6.80;5.27;;;19.80;11.70;;;;;;5013099;28;20200;-73
2022/05/02 13:41:17;;;;;;;6.70;5.00;;;20.00;13.00;;;;;;5012324;28;20196;-73
2022/05/02 13:43:58;;;;;;;8.63;4.93;;;20.10;14.20;;;;;;5011280;28;20191;-73
2022/05/02 13:46:55;;;;;;;14.87;5.80;;;20.30;1.00;;;;;;5011365;28;20248;-73
2022/05/02 13:49:30;;;;;;;5.13;4.50;;;20.20;1.00;;;;;;5013009;28;20488;-73
2022/05/02 13:52:12;;;;;;;8.57;5.30;;;20.50;1.00;;;;;;5012424;28;20161;-72